Time;durP1;ratioP1;P1;durP2;ratioP2;P2;SDS_P1;SDS_P2;PMS_P1;PMS_P2;Temp;Humidity;BMP_temperature;BMP_pressure;BME280_temperature;BME280_humidity;BME280_pressure;Samples;Min_cycle;Max_cycle;Signal;HPM_P1;HPM_P2
2023/04/16 00:00:31;;;;;;;54.25;24.15;;;8.50;99.90;;;;;;5097660;28;20067;-81
2023/04/16 00:02:56;;;;;;;59.35;24.30;;;8.50;99.90;;;;;;5097619;28;20123;-81
2023/04/16 00:05:22;;;;;;;54.38;25.17;;;8.50;99.90;;;;;;5097709;28;20044;-81
2023/04/16 00:07:50;;;;;;;50.17;22.30;;;8.50;99.90;;;;;;5096447;28;20143;-81
2023/04/16 00:10:16;;;;;;;53.13;25.42;;;9.00;99.90;;;;;;5097825;28;20052;-81
2023/04/16 00:12:42;;;;;;;51.60;24.13;;;8.50;99.90;;;;;;5097405;28;20040;-80
2023/04/16 00:15:07;;;;;;;50.13;23.60;;;8.80;99.90;;;;;;5097622;28;20040;-81
2023/04/16 00:17:33;;;;;;;46.40;22.40;;;8.50;99.90;;;;;;5097261;28;20040;-81
2023/04/16 00:19:59;;;;;;;48.33;21.25;;;8.50;99.90;;;;;;5097292;28;20055;-80
2023/04/16 00:22:24;;;;;;;45.42;23.13;;;8.50;99.90;;;;;;5096988;28;20039;-81
2023/04/16 00:24:50;;;;;;;61.83;26.55;;;9.00;99.90;;;;;;5097213;28;20512;-81
2023/04/16 00:27:15;;;;;;;54.75;24.13;;;8.50;99.90;;;;;;5097140;28;20086;-81
2023/04/16 00:29:41;;;;;;;52.90;21.40;;;8.50;99.90;;;;;;5097167;28;20040;-81
2023/04/16 00:32:07;;;;;;;51.17;22.50;;;8.50;99.90;;;;;;5095954;28;20070;-80
2023/04/16 00:34:32;;;;;;;54.20;23.48;;;8.50;99.90;;;;;;5096967;28;20071;-81
2023/04/16 00:36:58;;;;;;;50.72;22.45;;;8.50;99.90;;;;;;5096956;28;20036;-81
2023/04/16 00:39:24;;;;;;;49.25;22.20;;;9.00;99.90;;;;;;5096873;28;20136;-81
2023/04/16 00:41:50;;;;;;;50.92;24.17;;;8.50;99.90;;;;;;5096823;28;20482;-80
2023/04/16 00:44:15;;;;;;;51.35;23.17;;;8.50;99.90;;;;;;5095927;28;20051;-80
2023/04/16 00:46:41;;;;;;;54.92;24.38;;;8.50;99.90;;;;;;5096733;28;20039;-81
2023/04/16 00:49:08;;;;;;;53.25;24.50;;;8.40;99.90;;;;;;5096603;28;20126;-80
2023/04/16 00:51:35;;;;;;;49.05;23.58;;;8.50;99.90;;;;;;5097038;28;20059;-81
2023/04/16 00:54:02;;;;;;;48.00;21.92;;;8.50;99.90;;;;;;5096681;28;20054;-80
2023/04/16 00:56:27;;;;;;;;;;;8.50;99.90;;;;;;5095835;28;20388;-80
2023/04/16 00:58:55;;;;;;;44.33;21.90;;;8.50;99.90;;;;;;5096538;28;20018;-81
2023/04/16 01:01:21;;;;;;;47.35;23.52;;;8.50;99.90;;;;;;5095521;28;20052;-80
2023/04/16 01:03:48;;;;;;;44.00;23.33;;;8.80;99.90;;;;;;5095990;28;20126;-80
2023/04/16 01:06:16;;;;;;;55.08;23.45;;;8.50;99.90;;;;;;5096443;28;20044;-79
2023/04/16 01:08:42;;;;;;;52.15;23.58;;;8.50;99.90;;;;;;5096344;28;20044;-81
2023/04/16 01:11:09;;;;;;;49.58;24.75;;;8.50;99.90;;;;;;5096487;28;20044;-81
2023/04/16 01:13:38;;;;;;;;;;;8.50;99.90;;;;;;5096484;28;20040;-81
2023/04/16 01:16:05;;;;;;;50.42;24.60;;;8.40;99.90;;;;;;5096178;28;19920;-81
2023/04/16 01:18:31;;;;;;;46.00;22.05;;;8.40;99.90;;;;;;5096152;28;20059;-80
2023/04/16 01:20:57;;;;;;;58.65;23.80;;;8.40;99.90;;;;;;5094909;28;20055;-81
2023/04/16 01:23:22;;;;;;;51.95;22.67;;;8.40;99.90;;;;;;5096098;28;20123;-81
2023/04/16 01:25:48;;;;;;;60.15;25.17;;;8.40;99.90;;;;;;5096205;28;20104;-80
2023/04/16 01:28:14;;;;;;;48.45;23.05;;;9.10;99.90;;;;;;5095975;28;20083;-80
2023/04/16 01:30:40;;;;;;;56.03;24.63;;;8.30;99.90;;;;;;5096005;28;20099;-80
2023/04/16 01:33:06;;;;;;;47.72;22.65;;;8.30;99.90;;;;;;5094643;28;20048;-81
2023/04/16 01:35:32;;;;;;;48.63;22.83;;;8.30;99.90;;;;;;5094736;28;20044;-81
2023/04/16 01:37:58;;;;;;;53.90;24.23;;;8.30;99.90;;;;;;5095801;28;20544;-80
2023/04/16 01:40:23;;;;;;;53.33;23.27;;;8.20;99.90;;;;;;5095803;28;20039;-80
2023/04/16 01:42:50;;;;;;;56.28;23.23;;;8.30;99.90;;;;;;5094793;28;20097;-81
2023/04/16 01:45:16;;;;;;;59.40;25.67;;;8.20;99.90;;;;;;5095586;28;20391;-80
2023/04/16 01:47:41;;;;;;;63.63;24.33;;;8.30;99.90;;;;;;5095553;28;20048;-80
2023/04/16 01:50:08;;;;;;;56.90;23.15;;;8.20;99.90;;;;;;5095432;28;20054;-81
2023/04/16 01:52:34;;;;;;;55.97;23.50;;;8.10;99.90;;;;;;5095741;28;20391;-81
2023/04/16 01:54:59;;;;;;;57.80;22.52;;;8.10;99.90;;;;;;5077870;28;20135;-81
2023/04/16 01:57:25;;;;;;;50.92;21.42;;;8.20;99.90;;;;;;5094506;28;20075;-81
2023/04/16 01:59:50;;;;;;;60.63;23.73;;;8.20;99.90;;;;;;5095516;28;20063;-80
2023/04/16 02:02:16;;;;;;;60.65;23.95;;;8.60;99.90;;;;;;5094069;28;20052;-81
2023/04/16 02:04:44;;;;;;;50.08;23.17;;;8.10;99.90;;;;;;5094365;28;20035;-80
2023/04/16 02:07:11;;;;;;;55.03;23.20;;;8.20;99.90;;;;;;5095249;28;20395;-81
2023/04/16 02:09:38;;;;;;;46.67;23.02;;;8.20;99.90;;;;;;5095492;28;20070;-81
2023/04/16 02:12:04;;;;;;;52.45;25.35;;;8.10;99.90;;;;;;5095207;28;20096;-81
2023/04/16 02:14:30;;;;;;;53.17;23.15;;;8.10;99.90;;;;;;5095119;28;20047;-80
2023/04/16 02:16:56;;;;;;;56.95;24.88;;;8.20;99.90;;;;;;5094337;28;20040;-81
2023/04/16 02:19:22;;;;;;;45.58;23.00;;;8.10;99.90;;;;;;5095300;28;20047;-80
2023/04/16 02:21:48;;;;;;;49.15;24.90;;;8.10;99.90;;;;;;5095360;28;20543;-81
2023/04/16 02:24:13;;;;;;;47.45;23.42;;;8.20;99.90;;;;;;5095193;28;20047;-80
2023/04/16 02:26:39;;;;;;;55.75;24.05;;;8.30;99.90;;;;;;5094715;28;20052;-81
2023/04/16 02:29:05;;;;;;;51.75;23.63;;;8.10;99.90;;;;;;5094781;28;20051;-81
2023/04/16 02:31:31;;;;;;;58.05;26.02;;;8.00;99.90;;;;;;5094600;28;20047;-81
2023/04/16 02:33:56;;;;;;;64.40;25.77;;;8.70;99.90;;;;;;5094681;28;20058;-81
2023/04/16 02:36:23;;;;;;;55.55;23.58;;;8.40;99.90;;;;;;5093424;28;20075;-80
2023/04/16 02:38:48;;;;;;;49.65;23.92;;;8.00;99.90;;;;;;5093776;28;20131;-81
2023/04/16 02:41:14;;;;;;;54.92;24.85;;;8.60;99.90;;;;;;5094646;28;20474;-81
2023/04/16 02:43:39;;;;;;;52.35;23.58;;;7.90;99.90;;;;;;5093546;28;20040;-81
2023/04/16 02:46:05;;;;;;;49.72;23.65;;;8.50;99.90;;;;;;5093363;28;20066;-80
2023/04/16 02:48:31;;;;;;;47.42;23.48;;;8.00;99.90;;;;;;5094432;28;20055;-81
2023/04/16 02:50:57;;;;;;;56.10;23.57;;;8.00;99.90;;;;;;5094205;28;20052;-79
2023/04/16 02:53:23;;;;;;;51.50;24.57;;;8.40;99.90;;;;;;5094301;28;20036;-79
2023/04/16 02:55:53;;;;;;;58.83;23.75;;;7.90;99.90;;;;;;5093791;28;20056;-79
2023/04/16 02:58:22;;;;;;;55.85;25.50;;;7.90;99.90;;;;;;5094204;28;20075;-79
2023/04/16 03:00:48;;;;;;;60.85;25.95;;;7.90;99.90;;;;;;5094182;28;20493;-78
2023/04/16 03:03:14;;;;;;;60.75;26.17;;;8.50;99.90;;;;;;5094152;28;20127;-79
2023/04/16 03:05:40;;;;;;;52.92;26.58;;;8.00;99.90;;;;;;5093677;28;20130;-80
2023/04/16 03:08:05;;;;;;;49.35;24.33;;;7.90;99.90;;;;;;5094110;28;20048;-79
2023/04/16 03:10:31;;;;;;;59.17;25.63;;;7.80;99.90;;;;;;5094217;28;20130;-80
2023/04/16 03:12:57;;;;;;;55.22;25.92;;;7.90;99.90;;;;;;5094116;28;20173;-81
2023/04/16 03:15:24;;;;;;;60.45;25.92;;;7.90;99.90;;;;;;5076358;28;20090;-80
2023/04/16 03:17:50;;;;;;;57.45;24.58;;;7.80;99.90;;;;;;5094006;28;20097;-80
2023/04/16 03:20:18;;;;;;;57.15;23.65;;;7.80;99.90;;;;;;5093975;28;20589;-80
2023/04/16 03:22:45;;;;;;;56.58;25.75;;;7.80;99.90;;;;;;5093975;28;20039;-81
2023/04/16 03:25:11;;;;;;;56.13;25.92;;;8.30;99.90;;;;;;5094004;28;20059;-80
2023/04/16 03:27:38;;;;;;;60.43;25.30;;;7.80;99.90;;;;;;5093866;28;20096;-81
2023/04/16 03:30:06;;;;;;;56.38;24.73;;;7.80;99.90;;;;;;5093872;28;20050;-81
2023/04/16 03:32:31;;;;;;;52.47;24.60;;;7.80;99.90;;;;;;5093811;28;20032;-81
2023/04/16 03:34:57;;;;;;;57.92;26.48;;;7.80;99.90;;;;;;5094136;28;20480;-81
2023/04/16 03:37:22;;;;;;;53.70;24.63;;;7.80;99.90;;;;;;5094092;28;20036;-81
2023/04/16 03:39:48;;;;;;;56.92;23.98;;;7.80;99.90;;;;;;5093652;28;20048;-81
2023/04/16 03:42:14;;;;;;;52.50;24.88;;;7.70;99.90;;;;;;5093879;28;20048;-81
2023/04/16 03:44:39;;;;;;;48.80;23.23;;;7.70;99.90;;;;;;5093755;28;20482;-80
2023/04/16 03:47:05;;;;;;;50.95;23.60;;;7.70;99.90;;;;;;5094197;28;20100;-81
2023/04/16 03:49:31;;;;;;;48.45;24.15;;;7.70;99.90;;;;;;5093535;28;20123;-81
2023/04/16 03:51:56;;;;;;;50.67;24.13;;;7.70;99.90;;;;;;5093909;28;20047;-81
2023/04/16 03:54:22;;;;;;;46.58;22.63;;;7.70;99.90;;;;;;5093623;28;20059;-81
2023/04/16 03:56:47;;;;;;;49.20;24.30;;;7.70;99.90;;;;;;5093790;28;20088;-80
2023/04/16 03:59:13;;;;;;;45.00;24.00;;;7.70;99.90;;;;;;5109407;28;20123;-80
2023/04/16 04:01:39;;;;;;;48.95;23.15;;;7.70;99.90;;;;;;5093624;28;20391;-81
2023/04/16 04:04:05;;;;;;;54.15;23.98;;;7.70;99.90;;;;;;5109648;28;20047;-81
2023/04/16 04:06:31;;;;;;;48.08;22.83;;;7.70;99.90;;;;;;5093595;28;20044;-80
2023/04/16 04:08:57;;;;;;;54.00;24.65;;;7.70;99.90;;;;;;5093498;28;20501;-80
2023/04/16 04:11:23;;;;;;;49.80;22.90;;;7.70;99.90;;;;;;5093373;28;20069;-81
2023/04/16 04:13:48;;;;;;;48.78;23.38;;;7.70;99.90;;;;;;5093362;28;20580;-81
2023/04/16 04:16:14;;;;;;;44.63;22.80;;;7.70;99.90;;;;;;5093396;28;20048;-81
2023/04/16 04:18:39;;;;;;;48.17;24.27;;;7.70;99.90;;;;;;5093458;28;20040;-81
2023/04/16 04:21:08;;;;;;;47.13;23.05;;;7.70;99.90;;;;;;5092997;28;20044;-81
2023/04/16 04:23:37;;;;;;;52.50;23.67;;;7.70;99.90;;;;;;5093548;28;20051;-80
2023/04/16 04:26:04;;;;;;;53.70;25.08;;;7.70;99.90;;;;;;5093285;28;20044;-80
2023/04/16 04:28:31;;;;;;;54.17;24.42;;;7.70;99.90;;;;;;5093294;28;20097;-81
2023/04/16 04:30:57;;;;;;;50.35;23.75;;;7.70;99.90;;;;;;5093335;28;20044;-81
2023/04/16 04:33:24;;;;;;;57.22;25.23;;;7.70;99.90;;;;;;5093142;28;20040;-80
2023/04/16 04:35:49;;;;;;;51.72;24.17;;;7.70;99.90;;;;;;5093208;28;20493;-80
2023/04/16 04:38:18;;;;;;;50.03;23.30;;;7.70;99.90;;;;;;5093114;28;20170;-81
2023/04/16 04:40:44;;;;;;;48.25;23.92;;;7.70;99.90;;;;;;5096887;28;20510;-80
2023/04/16 04:43:10;;;;;;;42.38;21.20;;;7.70;99.90;;;;;;5096709;28;20036;-80
2023/04/16 04:45:36;;;;;;;52.95;24.13;;;7.60;99.90;;;;;;5096500;28;20040;-81
2023/04/16 04:48:01;;;;;;;53.88;24.88;;;7.60;99.90;;;;;;5097095;28;20040;-80
2023/04/16 04:50:27;;;;;;;49.40;23.17;;;7.80;99.90;;;;;;5096794;28;20058;-81
2023/04/16 04:52:52;;;;;;;58.03;25.42;;;7.90;99.90;;;;;;5096791;28;20048;-81
2023/04/16 04:55:18;;;;;;;53.53;24.17;;;7.60;99.90;;;;;;5096831;28;20048;-81
2023/04/16 04:57:44;;;;;;;53.85;24.23;;;7.90;99.90;;;;;;5096314;28;20395;-81
2023/04/16 05:00:10;;;;;;;48.28;22.80;;;8.30;99.90;;;;;;5078736;28;20044;-81
2023/04/16 05:02:36;;;;;;;45.38;22.98;;;7.70;99.90;;;;;;5095770;28;20369;-80
2023/04/16 05:05:02;;;;;;;54.28;25.25;;;7.60;99.90;;;;;;5096471;28;20048;-81
2023/04/16 05:07:28;;;;;;;48.90;22.65;;;7.70;99.90;;;;;;5096496;28;20044;-81
2023/04/16 05:09:53;;;;;;;50.38;23.45;;;7.80;99.90;;;;;;5096383;28;20048;-81
2023/04/16 05:12:19;;;;;;;46.30;23.08;;;7.70;99.90;;;;;;5096220;28;20131;-81
2023/04/16 05:14:44;;;;;;;49.65;22.63;;;7.80;99.90;;;;;;5095285;28;20036;-81
2023/04/16 05:17:10;;;;;;;49.58;22.42;;;7.70;99.90;;;;;;5095113;28;20069;-81
2023/04/16 05:19:36;;;;;;;48.78;22.95;;;7.70;99.90;;;;;;5095906;28;20044;-81
2023/04/16 05:22:02;;;;;;;51.13;23.08;;;8.60;99.90;;;;;;5096452;28;20083;-81
2023/04/16 05:24:28;;;;;;;51.35;23.15;;;7.80;99.90;;;;;;5096324;28;20401;-81
2023/04/16 05:26:55;;;;;;;55.13;24.87;;;7.80;99.90;;;;;;5096092;28;20044;-81
2023/04/16 05:29:21;;;;;;;56.85;24.92;;;7.80;99.90;;;;;;5095945;28;20355;-81
2023/04/16 05:31:46;;;;;;;46.78;22.33;;;7.80;99.90;;;;;;5095594;28;20076;-81
2023/04/16 05:34:12;;;;;;;43.70;22.50;;;7.80;99.90;;;;;;5094644;28;20044;-81
2023/04/16 05:36:37;;;;;;;44.08;23.35;;;7.80;99.90;;;;;;5096119;28;20074;-81
2023/04/16 05:39:03;;;;;;;49.63;23.60;;;8.50;99.90;;;;;;5095733;28;20127;-80
2023/04/16 05:41:29;;;;;;;43.58;21.60;;;7.80;99.90;;;;;;5096020;28;20052;-80
2023/04/16 05:43:55;;;;;;;44.17;21.88;;;7.80;99.90;;;;;;5095682;28;20498;-88
2023/04/16 05:46:20;;;;;;;49.08;22.73;;;7.90;99.90;;;;;;5094565;28;20123;-80
2023/04/16 05:48:46;;;;;;;48.83;22.67;;;7.90;99.90;;;;;;5095719;28;20075;-81
2023/04/16 05:51:11;;;;;;;45.67;22.25;;;8.00;99.90;;;;;;5094210;28;20052;-78
2023/04/16 05:53:37;;;;;;;50.67;23.85;;;7.90;99.90;;;;;;5095405;28;20490;-79
2023/04/16 05:56:02;;;;;;;48.42;22.45;;;7.90;99.90;;;;;;5095489;28;20044;-79
2023/04/16 05:58:28;;;;;;;44.45;20.92;;;7.90;99.90;;;;;;5095110;28;20109;-79
2023/04/16 06:00:54;;;;;;;48.78;21.63;;;8.00;99.90;;;;;;5095091;28;20048;-80
2023/04/16 06:03:19;;;;;;;59.65;22.42;;;8.10;99.90;;;;;;5095331;28;20360;-79
2023/04/16 06:05:45;;;;;;;45.92;21.17;;;8.10;99.90;;;;;;5095254;28;20040;-79
2023/04/16 06:08:10;;;;;;;52.60;23.02;;;8.10;99.90;;;;;;5095073;28;20044;-79
2023/04/16 06:10:36;;;;;;;52.40;23.20;;;8.10;99.90;;;;;;5095322;28;20044;-80
2023/04/16 06:13:02;;;;;;;51.38;22.67;;;8.70;99.90;;;;;;5095152;28;20122;-83
2023/04/16 06:15:28;;;;;;;47.22;20.80;;;8.20;99.90;;;;;;5095130;28;20551;-81
2023/04/16 06:17:54;;;;;;;51.45;22.25;;;8.20;99.90;;;;;;5093925;28;20047;-78
2023/04/16 06:20:20;;;;;;;51.42;23.60;;;8.20;99.90;;;;;;5095343;28;20048;-79
2023/04/16 06:22:45;;;;;;;50.40;23.00;;;8.20;99.90;;;;;;5095007;28;20459;-77
2023/04/16 06:25:11;;;;;;;51.83;22.55;;;8.30;99.90;;;;;;5093745;28;20040;-78
2023/04/16 06:27:37;;;;;;;53.38;23.05;;;8.30;99.90;;;;;;5094867;28;20054;-79
2023/04/16 06:30:03;;;;;;;47.50;22.00;;;8.30;99.90;;;;;;5094430;28;20086;-79
2023/04/16 06:32:28;;;;;;;60.60;22.50;;;8.30;99.90;;;;;;5094771;28;20032;-78
2023/04/16 06:34:55;;;;;;;43.53;21.27;;;8.40;99.90;;;;;;5094757;28;20040;-77
2023/04/16 06:37:20;;;;;;;50.30;23.48;;;8.40;99.90;;;;;;5096142;28;20052;-84
2023/04/16 06:39:46;;;;;;;46.97;22.08;;;8.40;99.90;;;;;;5095332;28;20051;-80
2023/04/16 06:42:12;;;;;;;39.92;20.35;;;8.50;99.90;;;;;;5093750;28;20052;-84
2023/04/16 06:44:37;;;;;;;41.78;19.98;;;8.50;99.90;;;;;;5094574;28;20469;-85
2023/04/16 06:47:03;;;;;;;43.03;21.27;;;8.60;99.90;;;;;;5093383;28;20047;-79
2023/04/16 06:49:29;;;;;;;46.38;20.60;;;8.50;99.90;;;;;;5094284;28;20080;-84
2023/04/16 06:51:55;;;;;;;39.33;20.67;;;9.10;99.90;;;;;;5093287;28;20048;-79
2023/04/16 06:54:20;;;;;;;49.53;20.33;;;8.60;99.90;;;;;;5076271;28;20051;-78
2023/04/16 06:56:47;;;;;;;41.38;20.17;;;8.80;99.90;;;;;;5094322;28;20136;-77
2023/04/16 06:59:12;;;;;;;42.90;20.95;;;8.60;99.90;;;;;;5093980;28;20138;-76
2023/04/16 07:01:38;;;;;;;48.85;22.25;;;8.60;99.90;;;;;;5094015;28;20052;-76
2023/04/16 07:04:04;;;;;;;42.22;21.23;;;8.70;99.90;;;;;;5094247;28;20155;-77
2023/04/16 07:06:30;;;;;;;49.45;21.88;;;8.70;99.90;;;;;;5094148;28;20036;-79
2023/04/16 07:08:56;;;;;;;41.95;20.48;;;9.00;99.90;;;;;;5094402;28;20040;-78
2023/04/16 07:11:21;;;;;;;44.33;20.60;;;8.70;99.90;;;;;;5094137;28;20475;-78
2023/04/16 07:13:47;;;;;;;47.28;21.52;;;8.80;99.90;;;;;;5094049;28;20129;-86
2023/04/16 07:16:13;;;;;;;42.00;20.15;;;8.80;99.90;;;;;;5092714;28;20514;-77
2023/04/16 07:18:38;;;;;;;49.03;20.80;;;8.80;99.90;;;;;;5093976;28;20044;-78
2023/04/16 07:21:04;;;;;;;40.53;20.92;;;8.70;99.90;;;;;;5093993;28;20048;-76
2023/04/16 07:23:30;;;;;;;52.08;20.20;;;8.80;99.90;;;;;;5093917;28;20036;-78
2023/04/16 07:25:56;;;;;;;42.53;20.87;;;8.80;99.90;;;;;;5093681;28;20605;-79
2023/04/16 07:28:21;;;;;;;42.40;19.02;;;8.80;99.90;;;;;;5093795;28;20123;-78
2023/04/16 07:30:47;;;;;;;44.42;19.67;;;8.80;99.90;;;;;;5092966;28;20090;-83
2023/04/16 07:33:12;;;;;;;41.60;19.55;;;8.80;99.90;;;;;;5094110;28;20040;-81
2023/04/16 07:35:38;;;;;;;40.05;19.45;;;8.80;99.90;;;;;;5093782;28;20044;-79
2023/04/16 07:38:03;;;;;;;41.65;18.85;;;8.80;99.90;;;;;;5092122;28;20036;-79
2023/04/16 07:40:29;;;;;;;39.28;18.75;;;8.80;99.90;;;;;;5093795;28;20127;-80
2023/04/16 07:42:55;;;;;;;41.22;18.65;;;8.90;99.90;;;;;;5093692;28;20086;-80
2023/04/16 07:45:22;;;;;;;51.92;20.05;;;8.80;99.90;;;;;;5094540;28;20040;-79
2023/04/16 07:47:48;;;;;;;42.83;20.13;;;8.80;99.90;;;;;;5093733;28;20040;-80
2023/04/16 07:50:15;;;;;;;43.30;21.02;;;8.90;99.90;;;;;;5094254;28;20055;-79
2023/04/16 07:52:42;;;;;;;37.35;19.55;;;8.90;99.90;;;;;;5093667;28;20536;-80
2023/04/16 07:55:08;;;;;;;44.03;19.48;;;9.40;99.90;;;;;;5093582;28;20094;-79
2023/04/16 07:57:34;;;;;;;40.22;19.17;;;9.10;99.90;;;;;;5093616;28;20093;-80
2023/04/16 08:00:06;;;;;;;38.30;19.75;;;9.30;99.90;;;;;;5093646;28;20387;-80
2023/04/16 08:02:32;;;;;;;34.30;17.80;;;9.40;99.90;;;;;;5093940;28;20047;-80
2023/04/16 08:04:58;;;;;;;37.90;18.83;;;9.70;99.90;;;;;;5093777;28;20040;-80
2023/04/16 08:07:23;;;;;;;39.05;19.23;;;9.60;99.90;;;;;;5093730;28;20118;-79
2023/04/16 08:09:53;;;;;;;35.20;18.48;;;9.60;99.90;;;;;;5093481;28;20051;-80
2023/04/16 08:12:19;;;;;;;34.60;18.17;;;9.80;99.90;;;;;;5093371;28;20051;-80
2023/04/16 08:14:46;;;;;;;37.60;17.40;;;9.70;99.90;;;;;;5095960;28;20088;-79
2023/04/16 08:17:13;;;;;;;37.83;19.17;;;9.70;99.90;;;;;;5097502;28;20089;-80
2023/04/16 08:19:38;;;;;;;34.75;18.92;;;9.80;99.90;;;;;;5097340;28;20040;-80
2023/04/16 08:22:04;;;;;;;34.85;18.80;;;9.90;99.90;;;;;;5097360;28;20036;-80
2023/04/16 08:24:30;;;;;;;33.38;18.90;;;9.90;99.90;;;;;;5097215;28;20466;-80
2023/04/16 08:26:55;;;;;;;34.25;16.92;;;10.00;99.90;;;;;;5095972;28;20090;-79
2023/04/16 08:29:23;;;;;;;36.97;18.40;;;10.20;99.90;;;;;;5097724;28;20177;-79
2023/04/16 08:31:49;;;;;;;31.05;17.75;;;10.30;99.90;;;;;;5096702;28;20474;-79
2023/04/16 08:34:15;;;;;;;36.05;17.70;;;10.40;99.90;;;;;;5096943;28;20123;-79
2023/04/16 08:36:41;;;;;;;31.63;16.52;;;10.40;99.90;;;;;;5097127;28;20127;-79
2023/04/16 08:39:06;;;;;;;30.52;16.45;;;10.40;99.90;;;;;;5096956;28;20126;-79
2023/04/16 08:41:35;;;;;;;31.50;16.42;;;10.60;99.90;;;;;;5096904;28;20140;-79
2023/04/16 08:44:07;;;;;;;27.00;15.25;;;10.60;99.90;;;;;;5096857;28;20044;-79
2023/04/16 08:46:36;;;;;;;34.13;16.98;;;10.70;99.90;;;;;;5096856;28;20135;-79
2023/04/16 08:49:07;;;;;;;31.48;17.20;;;10.80;99.90;;;;;;5095663;28;20430;-79
2023/04/16 08:51:34;;;;;;;31.13;17.48;;;10.90;99.90;;;;;;5096675;28;20488;-79
2023/04/16 08:54:07;;;;;;;34.92;17.45;;;11.40;99.90;;;;;;5096648;28;20384;-79
2023/04/16 08:56:35;;;;;;;28.13;15.40;;;11.20;99.90;;;;;;5095688;28;20055;-79
2023/04/16 08:59:04;;;;;;;31.85;15.63;;;11.30;99.90;;;;;;5096563;28;20044;-79
2023/04/16 09:01:31;;;;;;;25.73;14.50;;;11.40;99.90;;;;;;5096803;28;20039;-79
2023/04/16 09:04:00;;;;;;;26.63;14.40;;;12.00;99.90;;;;;;5096538;28;20040;-79
2023/04/16 09:06:27;;;;;;;26.95;14.50;;;12.00;99.90;;;;;;5096678;28;20090;-79
2023/04/16 09:08:53;;;;;;;24.40;13.45;;;11.80;99.90;;;;;;5096387;28;20157;-79
2023/04/16 09:11:19;;;;;;;23.92;12.63;;;12.00;99.90;;;;;;5096443;28;20040;-79
2023/04/16 09:13:45;;;;;;;25.02;13.63;;;12.20;99.90;;;;;;5096315;28;20045;-79
2023/04/16 09:16:12;;;;;;;25.00;13.48;;;12.20;99.90;;;;;;5096548;28;20178;-80
2023/04/16 09:18:38;;;;;;;27.70;14.23;;;12.30;99.90;;;;;;5096250;28;20048;-79
2023/04/16 09:21:06;;;;;;;21.60;13.13;;;12.40;99.90;;;;;;5096129;28;20051;-80
2023/04/16 09:23:32;;;;;;;19.88;12.55;;;12.20;99.90;;;;;;5095122;28;20055;-79
2023/04/16 09:25:58;;;;;;;24.08;14.10;;;12.40;99.90;;;;;;5096264;28;20044;-80
2023/04/16 09:28:46;;;;;;;20.23;12.68;;;12.60;99.90;;;;;;5096115;28;20035;-80
2023/04/16 09:31:13;;;;;;;;;;;12.50;99.90;;;;;;5096705;28;20051;-80
2023/04/16 09:33:39;;;;;;;23.13;12.18;;;12.40;99.90;;;;;;5095886;28;19931;-80
2023/04/16 09:36:06;;;;;;;22.60;12.27;;;12.40;99.90;;;;;;5095417;28;20044;-80
2023/04/16 09:38:51;;;;;;;;;;;12.40;99.90;;;;;;5096183;28;20055;-83
2023/04/16 09:41:17;;;;;;;23.17;12.10;;;12.40;99.90;;;;;;5094149;28;19920;-83
2023/04/16 09:43:58;;;;;;;20.67;12.27;;;12.60;99.90;;;;;;5094179;28;20052;-80
2023/04/16 09:46:31;;;;;;;20.55;12.32;;;12.40;99.90;;;;;;5094566;28;20369;-79
2023/04/16 09:48:57;;;;;;;20.88;12.13;;;12.50;99.90;;;;;;5094485;28;20047;-79
2023/04/16 09:51:24;;;;;;;21.60;11.57;;;12.50;99.90;;;;;;5093579;28;20377;-81
2023/04/16 09:53:56;;;;;;;20.70;11.82;;;12.60;99.90;;;;;;5092428;28;20472;-81
2023/04/16 09:56:29;;;;;;;19.35;11.43;;;12.70;99.90;;;;;;5095552;28;20048;-82
2023/04/16 09:58:59;;;;;;;20.60;12.07;;;12.80;99.90;;;;;;5095178;28;20055;-84
2023/04/16 10:01:25;;;;;;;20.25;12.07;;;12.90;99.90;;;;;;5110718;28;20044;-83
2023/04/16 10:03:54;;;;;;;21.67;11.33;;;13.00;99.90;;;;;;5095547;28;20371;-81
2023/04/16 10:06:22;;;;;;;19.42;12.07;;;13.10;99.90;;;;;;5095365;28;20048;-81
2023/04/16 10:08:49;;;;;;;23.88;11.68;;;13.10;99.90;;;;;;5093912;28;20040;-81
2023/04/16 10:11:16;;;;;;;19.83;12.15;;;13.20;99.90;;;;;;5076968;28;20039;-79
2023/04/16 10:13:42;;;;;;;20.20;10.45;;;13.20;99.90;;;;;;5093260;28;20035;-80
2023/04/16 10:16:08;;;;;;;22.27;11.43;;;13.10;99.90;;;;;;5094964;28;20043;-79
2023/04/16 10:18:39;;;;;;;19.27;12.52;;;13.30;99.90;;;;;;5093884;28;20047;-80
2023/04/16 10:21:05;;;;;;;22.00;12.32;;;13.40;99.90;;;;;;5091552;28;20054;-82
2023/04/16 10:23:34;;;;;;;21.07;12.93;;;13.60;99.90;;;;;;5093785;28;20403;-77
2023/04/16 10:26:01;;;;;;;19.05;11.82;;;13.70;99.90;;;;;;5094239;28;20044;-86
2023/04/16 10:28:28;;;;;;;22.50;12.05;;;13.70;99.90;;;;;;5094914;28;20040;-78
2023/04/16 10:30:56;;;;;;;22.77;11.43;;;13.80;99.90;;;;;;5095843;28;20047;-79
2023/04/16 10:33:24;;;;;;;27.67;12.30;;;13.90;99.90;;;;;;5107622;28;20047;-76
2023/04/16 10:35:50;;;;;;;19.83;11.95;;;14.00;99.90;;;;;;5102520;28;20127;-78
2023/04/16 10:38:27;;;;;;;19.30;11.43;;;14.30;99.90;;;;;;5100647;28;20105;-77
2023/04/16 10:41:01;;;;;;;19.50;11.25;;;14.10;99.90;;;;;;5094254;28;20089;-78
2023/04/16 10:43:27;;;;;;;20.20;12.15;;;14.20;99.90;;;;;;5094489;28;20058;-76
2023/04/16 10:45:54;;;;;;;18.60;11.73;;;14.10;99.90;;;;;;5094597;28;20122;-78
2023/04/16 10:48:20;;;;;;;20.15;11.65;;;14.30;99.90;;;;;;5094190;28;20047;-79
2023/04/16 10:50:56;;;;;;;21.83;11.95;;;14.30;99.90;;;;;;5094614;28;20052;-77
2023/04/16 10:53:26;;;;;;;24.77;11.88;;;14.40;99.90;;;;;;5094337;28;20036;-80
2023/04/16 10:56:03;;;;;;;20.95;11.73;;;14.50;99.90;;;;;;5094343;28;20043;-78
2023/04/16 10:58:35;;;;;;;23.42;12.63;;;14.40;99.90;;;;;;5094549;28;20467;-76
2023/04/16 11:01:15;;;;;;;18.02;11.35;;;14.50;99.90;;;;;;5094266;28;20044;-81
2023/04/16 11:03:47;;;;;;;19.38;12.23;;;14.50;99.90;;;;;;5076459;28;20040;-79
2023/04/16 11:06:22;;;;;;;21.25;11.48;;;14.50;99.90;;;;;;5093081;28;20051;-78
2023/04/16 11:08:50;;;;;;;18.10;11.43;;;14.50;99.90;;;;;;5093420;28;20051;-78
2023/04/16 11:11:17;;;;;;;20.98;11.98;;;14.50;99.90;;;;;;5076141;28;20474;-79
2023/04/16 11:13:44;;;;;;;;;;;14.40;99.90;;;;;;5093287;28;20126;-78
2023/04/16 11:16:11;;;;;;;17.92;11.20;;;14.50;99.90;;;;;;5093978;28;19920;-79
2023/04/16 11:18:39;;;;;;;20.15;11.57;;;14.50;99.90;;;;;;5094105;28;20048;-79
2023/04/16 11:21:09;;;;;;;17.17;11.75;;;14.50;99.90;;;;;;5094396;28;20475;-78
2023/04/16 11:23:48;;;;;;;21.52;11.48;;;14.60;99.90;;;;;;5094138;28;20039;-78
2023/04/16 11:26:22;;;;;;;19.70;11.57;;;14.50;99.90;;;;;;5091645;28;20051;-80
2023/04/16 11:28:48;;;;;;;20.60;12.52;;;14.60;99.90;;;;;;5093484;28;20093;-79
2023/04/16 11:31:13;;;;;;;20.03;12.23;;;14.60;99.90;;;;;;5093567;28;20040;-78
2023/04/16 11:33:39;;;;;;;21.55;11.10;;;14.70;99.90;;;;;;5092761;28;20051;-80
2023/04/16 11:36:05;;;;;;;20.50;11.77;;;14.70;99.90;;;;;;5093379;28;20044;-80
2023/04/16 11:38:39;;;;;;;19.53;12.27;;;14.80;99.90;;;;;;5093489;28;20040;-77
2023/04/16 11:41:05;;;;;;;23.08;11.73;;;14.80;99.90;;;;;;5092884;28;20040;-76
2023/04/16 11:43:31;;;;;;;17.90;10.93;;;14.90;99.90;;;;;;5093609;28;20476;-82
2023/04/16 11:46:02;;;;;;;17.30;11.30;;;14.80;99.90;;;;;;5091191;28;20515;-79
2023/04/16 11:48:48;;;;;;;20.45;11.57;;;14.80;99.90;;;;;;5088380;28;20080;-77
2023/04/16 11:51:13;;;;;;;15.82;10.90;;;14.60;99.90;;;;;;5077573;28;20131;-78
2023/04/16 11:53:47;;;;;;;23.53;11.83;;;14.80;99.90;;;;;;5077181;28;20127;-80
2023/04/16 11:56:13;;;;;;;16.48;10.82;;;14.80;99.90;;;;;;5077416;28;20185;-78
2023/04/16 11:58:39;;;;;;;18.27;10.85;;;15.10;99.90;;;;;;5077371;28;20048;-77
2023/04/16 12:01:06;;;;;;;14.27;10.15;;;15.00;99.90;;;;;;5077398;28;20044;-79
2023/04/16 12:03:42;;;;;;;18.42;10.98;;;15.20;99.90;;;;;;5077380;28;20053;-78
2023/04/16 12:06:09;;;;;;;15.77;10.60;;;15.40;99.90;;;;;;5077159;28;20048;-80
2023/04/16 12:08:35;;;;;;;17.00;10.00;;;15.60;99.90;;;;;;5076980;28;20439;-79
2023/04/16 12:11:00;;;;;;;18.27;10.83;;;15.80;99.90;;;;;;5077271;28;20048;-78
2023/04/16 12:13:26;;;;;;;22.98;10.52;;;15.60;99.90;;;;;;5087890;28;20405;-78
2023/04/16 12:15:53;;;;;;;17.13;10.50;;;15.70;99.90;;;;;;5096776;28;20036;-80
2023/04/16 12:18:21;;;;;;;17.48;9.07;;;15.80;99.90;;;;;;5097237;28;20056;-77
2023/04/16 12:20:49;;;;;;;16.77;10.63;;;15.90;99.90;;;;;;5096848;28;20080;-79
2023/04/16 12:23:27;;;;;;;16.73;10.50;;;15.90;99.90;;;;;;5096989;28;20051;-78
2023/04/16 12:25:52;;;;;;;;;;;15.90;99.90;;;;;;5097367;28;20123;-77
2023/04/16 12:28:33;;;;;;;21.27;10.10;;;15.80;99.90;;;;;;5096524;28;19978;-77
2023/04/16 12:30:59;;;;;;;17.80;10.35;;;15.70;99.90;;;;;;5096891;28;20132;-77
2023/04/16 12:33:25;;;;;;;15.30;9.07;;;15.60;99.90;;;;;;5096564;28;20055;-78